sensor_id;sensor_type;location;lat;lon;timestamp;temperature;humidity
49373;DHT22;44113;38.408;-122.974;2022-09-23T00:01:06;26.10;57.70
49373;DHT22;44113;38.408;-122.974;2022-09-23T00:03:35;26.10;57.70
49373;DHT22;44113;38.408;-122.974;2022-09-23T00:06:13;26.10;57.50
49373;DHT22;44113;38.408;-122.974;2022-09-23T00:08:40;26.10;57.70
49373;DHT22;44113;38.408;-122.974;2022-09-23T00:11:13;26.00;57.40
49373;DHT22;44113;38.408;-122.974;2022-09-23T00:13:41;26.00;57.20
49373;DHT22;44113;38.408;-122.974;2022-09-23T00:16:12;26.00;57.00
49373;DHT22;44113;38.408;-122.974;2022-09-23T00:18:38;26.00;56.70
49373;DHT22;44113;38.408;-122.974;2022-09-23T00:21:08;26.10;56.60
49373;DHT22;44113;38.408;-122.974;2022-09-23T00:23:35;26.00;56.50
49373;DHT22;44113;38.408;-122.974;2022-09-23T00:26:04;26.00;56.20
49373;DHT22;44113;38.408;-122.974;2022-09-23T00:28:31;26.00;56.30
49373;DHT22;44113;38.408;-122.974;2022-09-23T00:31:10;26.10;56.10
49373;DHT22;44113;38.408;-122.974;2022-09-23T00:33:37;26.10;56.00
49373;DHT22;44113;38.408;-122.974;2022-09-23T00:36:07;26.10;55.60
49373;DHT22;44113;38.408;-122.974;2022-09-23T00:38:36;26.10;55.60
49373;DHT22;44113;38.408;-122.974;2022-09-23T00:41:03;26.10;55.00
49373;DHT22;44113;38.408;-122.974;2022-09-23T00:43:45;26.10;55.10
49373;DHT22;44113;38.408;-122.974;2022-09-23T00:46:24;26.10;55.00
49373;DHT22;44113;38.408;-122.974;2022-09-23T00:49:01;26.10;54.80
49373;DHT22;44113;38.408;-122.974;2022-09-23T00:51:32;26.10;54.80
49373;DHT22;44113;38.408;-122.974;2022-09-23T00:54:00;26.20;54.90
49373;DHT22;44113;38.408;-122.974;2022-09-23T00:56:28;26.10;54.80
49373;DHT22;44113;38.408;-122.974;2022-09-23T00:58:55;26.20;54.70
49373;DHT22;44113;38.408;-122.974;2022-09-23T01:01:23;26.10;54.90
49373;DHT22;44113;38.408;-122.974;2022-09-23T01:03:50;26.20;55.00
49373;DHT22;44113;38.408;-122.974;2022-09-23T01:06:19;26.20;54.80
49373;DHT22;44113;38.408;-122.974;2022-09-23T01:08:46;26.10;54.60
49373;DHT22;44113;38.408;-122.974;2022-09-23T01:11:52;26.10;54.50
49373;DHT22;44113;38.408;-122.974;2022-09-23T01:17:29;26.10;54.40
49373;DHT22;44113;38.408;-122.974;2022-09-23T01:29:01;26.10;54.10
49373;DHT22;44113;38.408;-122.974;2022-09-23T01:31:45;26.00;53.80
49373;DHT22;44113;38.408;-122.974;2022-09-23T01:37:39;26.00;53.70
49373;DHT22;44113;38.408;-122.974;2022-09-23T01:40:29;26.00;54.30
49373;DHT22;44113;38.408;-122.974;2022-09-23T01:43:53;26.00;53.50
49373;DHT22;44113;38.408;-122.974;2022-09-23T01:45:57;26.00;53.50
49373;DHT22;44113;38.408;-122.974;2022-09-23T01:48:35;26.00;53.20
49373;DHT22;44113;38.408;-122.974;2022-09-23T01:51:10;26.00;53.20
49373;DHT22;44113;38.408;-122.974;2022-09-23T01:53:53;26.00;53.40
49373;DHT22;44113;38.408;-122.974;2022-09-23T01:56:29;26.00;53.40
49373;DHT22;44113;38.408;-122.974;2022-09-23T01:59:28;26.00;53.40
49373;DHT22;44113;38.408;-122.974;2022-09-23T02:02:03;26.00;53.20
49373;DHT22;44113;38.408;-122.974;2022-09-23T02:04:44;25.90;53.00
49373;DHT22;44113;38.408;-122.974;2022-09-23T02:07:19;25.90;53.10
49373;DHT22;44113;38.408;-122.974;2022-09-23T02:10:04;25.90;52.80
49373;DHT22;44113;38.408;-122.974;2022-09-23T02:12:34;25.90;53.00
49373;DHT22;44113;38.408;-122.974;2022-09-23T02:15:39;25.90;52.90
49373;DHT22;44113;38.408;-122.974;2022-09-23T02:18:21;25.90;52.90
49373;DHT22;44113;38.408;-122.974;2022-09-23T02:20:53;25.80;53.00
49373;DHT22;44113;38.408;-122.974;2022-09-23T02:23:49;25.80;52.90
49373;DHT22;44113;38.408;-122.974;2022-09-23T02:26:57;25.80;52.80
49373;DHT22;44113;38.408;-122.974;2022-09-23T02:29:27;25.80;53.00
49373;DHT22;44113;38.408;-122.974;2022-09-23T02:32:38;25.80;53.10
49373;DHT22;44113;38.408;-122.974;2022-09-23T02:37:45;25.70;52.70
49373;DHT22;44113;38.408;-122.974;2022-09-23T02:40:23;25.70;52.80
49373;DHT22;44113;38.408;-122.974;2022-09-23T02:45:24;25.60;53.20
49373;DHT22;44113;38.408;-122.974;2022-09-23T02:47:58;25.60;53.50
49373;DHT22;44113;38.408;-122.974;2022-09-23T02:50:27;25.60;53.50
49373;DHT22;44113;38.408;-122.974;2022-09-23T02:52:56;25.60;53.60
49373;DHT22;44113;38.408;-122.974;2022-09-23T02:55:23;25.60;53.80
49373;DHT22;44113;38.408;-122.974;2022-09-23T02:57:51;25.60;53.80
49373;DHT22;44113;38.408;-122.974;2022-09-23T03:00:18;25.60;53.80
49373;DHT22;44113;38.408;-122.974;2022-09-23T03:05:43;25.50;53.80
49373;DHT22;44113;38.408;-122.974;2022-09-23T03:18:44;25.40;54.30
49373;DHT22;44113;38.408;-122.974;2022-09-23T03:21:37;25.40;54.40
49373;DHT22;44113;38.408;-122.974;2022-09-23T03:24:08;25.40;54.70
49373;DHT22;44113;38.408;-122.974;2022-09-23T03:26:36;25.30;54.60
49373;DHT22;44113;38.408;-122.974;2022-09-23T03:29:06;25.40;54.70
49373;DHT22;44113;38.408;-122.974;2022-09-23T03:31:37;25.30;54.80
49373;DHT22;44113;38.408;-122.974;2022-09-23T03:34:15;25.30;54.90
49373;DHT22;44113;38.408;-122.974;2022-09-23T03:36:53;25.30;55.00
49373;DHT22;44113;38.408;-122.974;2022-09-23T03:39:37;25.20;55.00
49373;DHT22;44113;38.408;-122.974;2022-09-23T03:42:10;25.20;55.20
49373;DHT22;44113;38.408;-122.974;2022-09-23T03:44:50;25.20;55.30
49373;DHT22;44113;38.408;-122.974;2022-09-23T03:47:19;25.10;55.50
49373;DHT22;44113;38.408;-122.974;2022-09-23T03:49:48;25.10;55.20
49373;DHT22;44113;38.408;-122.974;2022-09-23T03:52:18;25.10;55.10
49373;DHT22;44113;38.408;-122.974;2022-09-23T03:54:45;25.10;55.30
49373;DHT22;44113;38.408;-122.974;2022-09-23T03:57:13;25.00;55.30
49373;DHT22;44113;38.408;-122.974;2022-09-23T03:59:39;25.10;55.70
49373;DHT22;44113;38.408;-122.974;2022-09-23T04:02:06;25.00;55.80
49373;DHT22;44113;38.408;-122.974;2022-09-23T04:04:38;25.00;56.00
49373;DHT22;44113;38.408;-122.974;2022-09-23T04:07:06;25.00;56.00
49373;DHT22;44113;38.408;-122.974;2022-09-23T04:09:33;25.00;56.10
49373;DHT22;44113;38.408;-122.974;2022-09-23T04:12:02;25.00;56.20
49373;DHT22;44113;38.408;-122.974;2022-09-23T04:14:29;25.00;56.20
49373;DHT22;44113;38.408;-122.974;2022-09-23T04:16:56;24.90;56.30
49373;DHT22;44113;38.408;-122.974;2022-09-23T04:19:22;24.90;57.00
49373;DHT22;44113;38.408;-122.974;2022-09-23T04:21:49;25.00;56.40
49373;DHT22;44113;38.408;-122.974;2022-09-23T04:24:16;24.90;56.50
49373;DHT22;44113;38.408;-122.974;2022-09-23T04:26:42;24.90;56.50
49373;DHT22;44113;38.408;-122.974;2022-09-23T04:29:10;24.90;56.60
49373;DHT22;44113;38.408;-122.974;2022-09-23T04:31:38;25.00;56.70
49373;DHT22;44113;38.408;-122.974;2022-09-23T04:34:05;24.90;56.80
49373;DHT22;44113;38.408;-122.974;2022-09-23T04:36:33;24.90;57.40
49373;DHT22;44113;38.408;-122.974;2022-09-23T04:39:00;24.90;56.80
49373;DHT22;44113;38.408;-122.974;2022-09-23T04:41:27;24.90;56.80
49373;DHT22;44113;38.408;-122.974;2022-09-23T04:43:54;24.90;56.80
49373;DHT22;44113;38.408;-122.974;2022-09-23T04:46:22;24.90;56.80
49373;DHT22;44113;38.408;-122.974;2022-09-23T04:48:49;24.90;56.90
49373;DHT22;44113;38.408;-122.974;2022-09-23T04:51:18;24.80;56.90
49373;DHT22;44113;38.408;-122.974;2022-09-23T04:53:47;24.80;56.90
49373;DHT22;44113;38.408;-122.974;2022-09-23T04:56:20;24.80;57.00
49373;DHT22;44113;38.408;-122.974;2022-09-23T04:58:48;24.80;57.00
49373;DHT22;44113;38.408;-122.974;2022-09-23T05:01:21;24.80;57.50
49373;DHT22;44113;38.408;-122.974;2022-09-23T05:03:54;24.80;58.60
49373;DHT22;44113;38.408;-122.974;2022-09-23T05:06:22;24.80;59.30
49373;DHT22;44113;38.408;-122.974;2022-09-23T05:08:51;24.80;59.90
49373;DHT22;44113;38.408;-122.974;2022-09-23T05:11:18;24.80;59.40
49373;DHT22;44113;38.408;-122.974;2022-09-23T05:13:51;24.90;59.20
49373;DHT22;44113;38.408;-122.974;2022-09-23T05:16:19;24.80;59.00
49373;DHT22;44113;38.408;-122.974;2022-09-23T05:18:47;24.90;58.90
49373;DHT22;44113;38.408;-122.974;2022-09-23T05:21:16;24.80;58.80
49373;DHT22;44113;38.408;-122.974;2022-09-23T05:23:48;24.80;58.80
49373;DHT22;44113;38.408;-122.974;2022-09-23T05:26:15;24.80;58.80
49373;DHT22;44113;38.408;-122.974;2022-09-23T05:28:41;24.80;58.80
49373;DHT22;44113;38.408;-122.974;2022-09-23T05:31:13;24.80;58.70
49373;DHT22;44113;38.408;-122.974;2022-09-23T05:33:43;24.80;58.70
49373;DHT22;44113;38.408;-122.974;2022-09-23T05:36:14;24.80;58.80
49373;DHT22;44113;38.408;-122.974;2022-09-23T05:38:43;24.80;58.70
49373;DHT22;44113;38.408;-122.974;2022-09-23T05:41:12;24.80;58.80
49373;DHT22;44113;38.408;-122.974;2022-09-23T05:43:40;24.80;58.80
49373;DHT22;44113;38.408;-122.974;2022-09-23T05:48:38;24.80;58.90
49373;DHT22;44113;38.408;-122.974;2022-09-23T05:51:06;24.70;59.00
49373;DHT22;44113;38.408;-122.974;2022-09-23T05:53:36;24.70;59.10
49373;DHT22;44113;38.408;-122.974;2022-09-23T05:56:03;24.70;59.00
49373;DHT22;44113;38.408;-122.974;2022-09-23T05:58:29;24.70;59.00
49373;DHT22;44113;38.408;-122.974;2022-09-23T06:00:57;24.70;59.10
49373;DHT22;44113;38.408;-122.974;2022-09-23T06:03:24;24.70;59.00
49373;DHT22;44113;38.408;-122.974;2022-09-23T06:05:54;24.70;59.00
49373;DHT22;44113;38.408;-122.974;2022-09-23T06:08:22;24.70;59.00
49373;DHT22;44113;38.408;-122.974;2022-09-23T06:10:49;24.70;59.00
49373;DHT22;44113;38.408;-122.974;2022-09-23T06:13:16;24.70;59.00
49373;DHT22;44113;38.408;-122.974;2022-09-23T06:15:43;24.70;59.00
49373;DHT22;44113;38.408;-122.974;2022-09-23T06:18:10;24.70;59.00
49373;DHT22;44113;38.408;-122.974;2022-09-23T06:20:37;24.70;59.00
49373;DHT22;44113;38.408;-122.974;2022-09-23T06:23:05;24.70;59.00
49373;DHT22;44113;38.408;-122.974;2022-09-23T06:25:33;24.60;59.00
49373;DHT22;44113;38.408;-122.974;2022-09-23T06:28:01;24.60;59.10
49373;DHT22;44113;38.408;-122.974;2022-09-23T06:30:29;24.60;59.00
49373;DHT22;44113;38.408;-122.974;2022-09-23T06:32:57;24.60;59.00
49373;DHT22;44113;38.408;-122.974;2022-09-23T06:35:25;24.60;59.00
49373;DHT22;44113;38.408;-122.974;2022-09-23T06:37:53;24.60;59.10
49373;DHT22;44113;38.408;-122.974;2022-09-23T06:40:21;24.60;59.30
49373;DHT22;44113;38.408;-122.974;2022-09-23T06:42:47;24.60;59.20
49373;DHT22;44113;38.408;-122.974;2022-09-23T06:45:14;24.60;59.20
49373;DHT22;44113;38.408;-122.974;2022-09-23T06:47:41;24.60;59.20
49373;DHT22;44113;38.408;-122.974;2022-09-23T06:50:10;24.60;59.20
49373;DHT22;44113;38.408;-122.974;2022-09-23T06:52:39;24.60;59.20
49373;DHT22;44113;38.408;-122.974;2022-09-23T06:55:06;24.60;59.20
49373;DHT22;44113;38.408;-122.974;2022-09-23T06:57:33;24.60;59.20
49373;DHT22;44113;38.408;-122.974;2022-09-23T07:00:00;24.60;59.20
49373;DHT22;44113;38.408;-122.974;2022-09-23T07:02:28;24.60;59.30
49373;DHT22;44113;38.408;-122.974;2022-09-23T07:04:55;24.60;59.30
49373;DHT22;44113;38.408;-122.974;2022-09-23T07:07:23;24.50;59.30
49373;DHT22;44113;38.408;-122.974;2022-09-23T07:09:51;24.50;59.30
49373;DHT22;44113;38.408;-122.974;2022-09-23T07:12:17;24.50;59.30
49373;DHT22;44113;38.408;-122.974;2022-09-23T07:14:44;24.60;59.50
49373;DHT22;44113;38.408;-122.974;2022-09-23T07:17:11;24.50;59.40
49373;DHT22;44113;38.408;-122.974;2022-09-23T07:19:37;24.50;59.40
49373;DHT22;44113;38.408;-122.974;2022-09-23T07:22:04;24.50;59.40
49373;DHT22;44113;38.408;-122.974;2022-09-23T07:24:31;24.50;59.40
49373;DHT22;44113;38.408;-122.974;2022-09-23T07:26:59;24.50;59.40
49373;DHT22;44113;38.408;-122.974;2022-09-23T07:29:26;24.50;59.40
49373;DHT22;44113;38.408;-122.974;2022-09-23T07:31:52;24.50;59.50
49373;DHT22;44113;38.408;-122.974;2022-09-23T07:34:19;24.50;59.40
49373;DHT22;44113;38.408;-122.974;2022-09-23T07:36:46;24.50;59.40
49373;DHT22;44113;38.408;-122.974;2022-09-23T07:39:13;24.50;59.50
49373;DHT22;44113;38.408;-122.974;2022-09-23T07:41:40;24.40;59.50
49373;DHT22;44113;38.408;-122.974;2022-09-23T07:44:10;24.40;59.50
49373;DHT22;44113;38.408;-122.974;2022-09-23T07:46:37;24.40;59.60
49373;DHT22;44113;38.408;-122.974;2022-09-23T07:49:04;24.40;59.60
49373;DHT22;44113;38.408;-122.974;2022-09-23T07:51:34;24.40;60.20
49373;DHT22;44113;38.408;-122.974;2022-09-23T07:54:02;24.40;59.60
49373;DHT22;44113;38.408;-122.974;2022-09-23T07:56:31;24.40;59.70
49373;DHT22;44113;38.408;-122.974;2022-09-23T07:58:58;24.40;59.60
49373;DHT22;44113;38.408;-122.974;2022-09-23T08:01:31;24.40;59.60
49373;DHT22;44113;38.408;-122.974;2022-09-23T08:04:01;24.40;59.60
49373;DHT22;44113;38.408;-122.974;2022-09-23T08:06:28;24.40;59.60
49373;DHT22;44113;38.408;-122.974;2022-09-23T08:08:57;24.40;59.60
49373;DHT22;44113;38.408;-122.974;2022-09-23T08:11:25;24.40;59.60
49373;DHT22;44113;38.408;-122.974;2022-09-23T08:13:52;24.30;59.60
49373;DHT22;44113;38.408;-122.974;2022-09-23T08:16:19;24.30;59.60
49373;DHT22;44113;38.408;-122.974;2022-09-23T08:18:46;24.30;59.60
49373;DHT22;44113;38.408;-122.974;2022-09-23T08:21:21;24.30;59.80
49373;DHT22;44113;38.408;-122.974;2022-09-23T08:23:48;24.30;59.90
49373;DHT22;44113;38.408;-122.974;2022-09-23T08:26:16;24.30;59.80
49373;DHT22;44113;38.408;-122.974;2022-09-23T08:28:44;24.30;59.90
49373;DHT22;44113;38.408;-122.974;2022-09-23T08:31:10;24.30;59.90
49373;DHT22;44113;38.408;-122.974;2022-09-23T08:33:39;24.20;59.90
49373;DHT22;44113;38.408;-122.974;2022-09-23T08:36:06;24.20;59.90
49373;DHT22;44113;38.408;-122.974;2022-09-23T08:38:33;24.30;59.80
49373;DHT22;44113;38.408;-122.974;2022-09-23T08:41:25;24.20;59.80
49373;DHT22;44113;38.408;-122.974;2022-09-23T08:43:56;24.20;60.00
49373;DHT22;44113;38.408;-122.974;2022-09-23T08:46:34;24.20;60.00
49373;DHT22;44113;38.408;-122.974;2022-09-23T08:49:03;24.10;60.00
49373;DHT22;44113;38.408;-122.974;2022-09-23T08:51:45;24.20;60.10
49373;DHT22;44113;38.408;-122.974;2022-09-23T08:54:13;24.10;60.10
49373;DHT22;44113;38.408;-122.974;2022-09-23T08:56:43;24.10;60.10
49373;DHT22;44113;38.408;-122.974;2022-09-23T08:59:36;24.10;60.10
49373;DHT22;44113;38.408;-122.974;2022-09-23T09:02:19;24.10;60.00
49373;DHT22;44113;38.408;-122.974;2022-09-23T09:05:00;24.10;60.10
49373;DHT22;44113;38.408;-122.974;2022-09-23T09:07:34;24.10;60.00
49373;DHT22;44113;38.408;-122.974;2022-09-23T09:10:27;24.10;60.00
49373;DHT22;44113;38.408;-122.974;2022-09-23T09:13:35;24.10;60.00
49373;DHT22;44113;38.408;-122.974;2022-09-23T09:16:29;24.00;60.00
49373;DHT22;44113;38.408;-122.974;2022-09-23T09:19:06;24.00;60.10
49373;DHT22;44113;38.408;-122.974;2022-09-23T09:21:36;24.00;60.10
49373;DHT22;44113;38.408;-122.974;2022-09-23T09:24:16;24.00;60.10
49373;DHT22;44113;38.408;-122.974;2022-09-23T09:26:44;24.00;60.10
49373;DHT22;44113;38.408;-122.974;2022-09-23T09:29:31;23.90;60.20
49373;DHT22;44113;38.408;-122.974;2022-09-23T09:31:59;23.90;60.20
49373;DHT22;44113;38.408;-122.974;2022-09-23T09:34:48;23.90;60.20
49373;DHT22;44113;38.408;-122.974;2022-09-23T09:37:42;23.90;60.10
49373;DHT22;44113;38.408;-122.974;2022-09-23T09:40:13;23.90;60.20
49373;DHT22;44113;38.408;-122.974;2022-09-23T09:42:48;23.90;60.50
49373;DHT22;44113;38.408;-122.974;2022-09-23T09:45:21;23.90;60.10
49373;DHT22;44113;38.408;-122.974;2022-09-23T09:47:58;23.90;60.10
49373;DHT22;44113;38.408;-122.974;2022-09-23T09:50:48;23.90;60.10
49373;DHT22;44113;38.408;-122.974;2022-09-23T09:53:27;23.80;60.10
49373;DHT22;44113;38.408;-122.974;2022-09-23T09:56:06;23.80;60.20
49373;DHT22;44113;38.408;-122.974;2022-09-23T09:58:54;23.80;60.20
49373;DHT22;44113;38.408;-122.974;2022-09-23T10:01:25;23.70;60.40
49373;DHT22;44113;38.408;-122.974;2022-09-23T10:04:04;23.70;60.30
49373;DHT22;44113;38.408;-122.974;2022-09-23T10:06:33;23.70;60.30
49373;DHT22;44113;38.408;-122.974;2022-09-23T10:11:28;23.70;60.30
49373;DHT22;44113;38.408;-122.974;2022-09-23T10:16:32;23.80;60.30
49373;DHT22;44113;38.408;-122.974;2022-09-23T10:19:03;23.70;60.20
49373;DHT22;44113;38.408;-122.974;2022-09-23T10:21:37;23.70;60.30
49373;DHT22;44113;38.408;-122.974;2022-09-23T10:24:15;23.70;60.30
49373;DHT22;44113;38.408;-122.974;2022-09-23T10:26:59;23.60;60.30
49373;DHT22;44113;38.408;-122.974;2022-09-23T10:29:38;23.60;60.40
49373;DHT22;44113;38.408;-122.974;2022-09-23T10:34:56;23.60;60.50
49373;DHT22;44113;38.408;-122.974;2022-09-23T10:50:13;23.60;60.40
49373;DHT22;44113;38.408;-122.974;2022-09-23T10:55:46;23.50;60.50
49373;DHT22;44113;38.408;-122.974;2022-09-23T11:01:14;23.40;60.50
49373;DHT22;44113;38.408;-122.974;2022-09-23T11:06:55;23.40;60.60
49373;DHT22;44113;38.408;-122.974;2022-09-23T11:34:45;23.30;60.80
49373;DHT22;44113;38.408;-122.974;2022-09-23T11:37:36;23.30;60.80
49373;DHT22;44113;38.408;-122.974;2022-09-23T11:40:36;23.30;61.40
49373;DHT22;44113;38.408;-122.974;2022-09-23T11:45:40;23.30;60.90
49373;DHT22;44113;38.408;-122.974;2022-09-23T11:48:57;23.20;60.80
49373;DHT22;44113;38.408;-122.974;2022-09-23T11:51:32;23.30;60.90
49373;DHT22;44113;38.408;-122.974;2022-09-23T11:54:10;23.30;60.80
49373;DHT22;44113;38.408;-122.974;2022-09-23T11:56:44;23.20;60.70
49373;DHT22;44113;38.408;-122.974;2022-09-23T11:59:59;23.30;60.80
49373;DHT22;44113;38.408;-122.974;2022-09-23T12:05:15;23.30;60.80
49373;DHT22;44113;38.408;-122.974;2022-09-23T12:08:31;23.30;60.80
49373;DHT22;44113;38.408;-122.974;2022-09-23T12:16:21;23.30;60.70
49373;DHT22;44113;38.408;-122.974;2022-09-23T12:19:15;23.20;60.70
49373;DHT22;44113;38.408;-122.974;2022-09-23T12:27:40;23.20;60.70
49373;DHT22;44113;38.408;-122.974;2022-09-23T12:30:21;23.20;60.80
49373;DHT22;44113;38.408;-122.974;2022-09-23T12:32:48;23.10;60.70
49373;DHT22;44113;38.408;-122.974;2022-09-23T12:35:22;23.10;60.70
49373;DHT22;44113;38.408;-122.974;2022-09-23T12:37:50;23.10;60.80
49373;DHT22;44113;38.408;-122.974;2022-09-23T12:40:32;23.10;60.90
49373;DHT22;44113;38.408;-122.974;2022-09-23T12:43:01;23.10;61.00
49373;DHT22;44113;38.408;-122.974;2022-09-23T12:56:21;23.10;60.90
49373;DHT22;44113;38.408;-122.974;2022-09-23T13:01:23;23.10;60.70
49373;DHT22;44113;38.408;-122.974;2022-09-23T13:03:56;23.10;60.80
49373;DHT22;44113;38.408;-122.974;2022-09-23T13:09:47;23.00;60.80
49373;DHT22;44113;38.408;-122.974;2022-09-23T13:12:22;23.00;61.00
49373;DHT22;44113;38.408;-122.974;2022-09-23T13:14:53;22.90;61.00
49373;DHT22;44113;38.408;-122.974;2022-09-23T13:17:41;23.00;61.10
49373;DHT22;44113;38.408;-122.974;2022-09-23T13:25:25;23.00;61.00
49373;DHT22;44113;38.408;-122.974;2022-09-23T13:27:55;22.90;61.00
49373;DHT22;44113;38.408;-122.974;2022-09-23T13:30:24;23.00;61.00
49373;DHT22;44113;38.408;-122.974;2022-09-23T13:33:13;23.00;61.00
49373;DHT22;44113;38.408;-122.974;2022-09-23T13:35:45;23.00;60.90
49373;DHT22;44113;38.408;-122.974;2022-09-23T13:38:26;23.00;61.00
49373;DHT22;44113;38.408;-122.974;2022-09-23T13:41:09;22.90;61.00
49373;DHT22;44113;38.408;-122.974;2022-09-23T13:43:36;22.90;61.00
49373;DHT22;44113;38.408;-122.974;2022-09-23T13:46:31;22.90;61.10
49373;DHT22;44113;38.408;-122.974;2022-09-23T13:48:59;22.80;61.00
49373;DHT22;44113;38.408;-122.974;2022-09-23T13:51:35;22.90;61.10
49373;DHT22;44113;38.408;-122.974;2022-09-23T13:54:04;22.80;61.20
49373;DHT22;44113;38.408;-122.974;2022-09-23T13:56:31;22.90;61.10
49373;DHT22;44113;38.408;-122.974;2022-09-23T13:59:23;22.80;61.10
49373;DHT22;44113;38.408;-122.974;2022-09-23T14:02:12;22.80;61.10
49373;DHT22;44113;38.408;-122.974;2022-09-23T14:04:38;22.90;61.10
49373;DHT22;44113;38.408;-122.974;2022-09-23T14:07:07;22.90;61.00
49373;DHT22;44113;38.408;-122.974;2022-09-23T14:09:36;22.90;61.00
49373;DHT22;44113;38.408;-122.974;2022-09-23T14:12:04;22.90;61.00
49373;DHT22;44113;38.408;-122.974;2022-09-23T14:14:35;22.90;61.00
49373;DHT22;44113;38.408;-122.974;2022-09-23T14:17:04;22.80;61.10
49373;DHT22;44113;38.408;-122.974;2022-09-23T14:19:31;22.80;61.10
49373;DHT22;44113;38.408;-122.974;2022-09-23T14:21:59;22.80;61.20
49373;DHT22;44113;38.408;-122.974;2022-09-23T14:24:29;22.70;61.10
49373;DHT22;44113;38.408;-122.974;2022-09-23T14:27:26;22.80;61.30
49373;DHT22;44113;38.408;-122.974;2022-09-23T14:29:53;22.80;61.20
49373;DHT22;44113;38.408;-122.974;2022-09-23T14:32:21;22.70;61.20
49373;DHT22;44113;38.408;-122.974;2022-09-23T14:37:49;22.80;61.20
49373;DHT22;44113;38.408;-122.974;2022-09-23T14:40:47;22.80;61.10
49373;DHT22;44113;38.408;-122.974;2022-09-23T14:43:27;22.80;61.10
49373;DHT22;44113;38.408;-122.974;2022-09-23T14:45:58;22.70;61.70
49373;DHT22;44113;38.408;-122.974;2022-09-23T14:50:57;22.70;61.20
49373;DHT22;44113;38.408;-122.974;2022-09-23T14:53:41;22.70;61.70
49373;DHT22;44113;38.408;-122.974;2022-09-23T14:56:16;22.70;61.20
49373;DHT22;44113;38.408;-122.974;2022-09-23T14:58:56;22.60;61.30
49373;DHT22;44113;38.408;-122.974;2022-09-23T15:04:12;22.70;61.30
49373;DHT22;44113;38.408;-122.974;2022-09-23T15:07:25;22.70;61.30
49373;DHT22;44113;38.408;-122.974;2022-09-23T15:09:44;22.70;61.20
49373;DHT22;44113;38.408;-122.974;2022-09-23T15:12:13;22.70;61.20
49373;DHT22;44113;38.408;-122.974;2022-09-23T15:14:42;22.70;61.20
49373;DHT22;44113;38.408;-122.974;2022-09-23T15:17:24;22.70;61.20
49373;DHT22;44113;38.408;-122.974;2022-09-23T15:19:57;22.60;61.10
49373;DHT22;44113;38.408;-122.974;2022-09-23T15:22:26;22.70;61.20
49373;DHT22;44113;38.408;-122.974;2022-09-23T15:25:07;22.70;61.20
49373;DHT22;44113;38.408;-122.974;2022-09-23T15:27:36;22.60;61.20
49373;DHT22;44113;38.408;-122.974;2022-09-23T15:32:42;22.60;62.10
49373;DHT22;44113;38.408;-122.974;2022-09-23T15:35:16;22.60;62.10
49373;DHT22;44113;38.408;-122.974;2022-09-23T15:37:44;22.60;61.90
49373;DHT22;44113;38.408;-122.974;2022-09-23T15:40:31;22.70;61.90
49373;DHT22;44113;38.408;-122.974;2022-09-23T15:43:05;22.70;62.00
49373;DHT22;44113;38.408;-122.974;2022-09-23T15:45:37;22.70;61.90
49373;DHT22;44113;38.408;-122.974;2022-09-23T15:48:13;22.60;62.00
49373;DHT22;44113;38.408;-122.974;2022-09-23T15:50:41;22.70;62.20
49373;DHT22;44113;38.408;-122.974;2022-09-23T15:53:14;22.70;62.10
49373;DHT22;44113;38.408;-122.974;2022-09-23T15:55:41;22.70;62.40
49373;DHT22;44113;38.408;-122.974;2022-09-23T15:58:08;22.60;62.50
49373;DHT22;44113;38.408;-122.974;2022-09-23T16:00:35;22.60;62.40
49373;DHT22;44113;38.408;-122.974;2022-09-23T16:03:02;22.60;62.40
49373;DHT22;44113;38.408;-122.974;2022-09-23T16:05:35;22.60;62.40
49373;DHT22;44113;38.408;-122.974;2022-09-23T16:08:06;22.60;62.30
49373;DHT22;44113;38.408;-122.974;2022-09-23T16:10:34;22.60;62.40
49373;DHT22;44113;38.408;-122.974;2022-09-23T16:13:04;22.60;62.40
49373;DHT22;44113;38.408;-122.974;2022-09-23T16:15:32;22.70;62.40
49373;DHT22;44113;38.408;-122.974;2022-09-23T16:17:59;22.70;62.30
49373;DHT22;44113;38.408;-122.974;2022-09-23T16:20:28;22.70;62.30
49373;DHT22;44113;38.408;-122.974;2022-09-23T16:23:01;22.70;62.20
49373;DHT22;44113;38.408;-122.974;2022-09-23T16:25:31;22.70;62.20
49373;DHT22;44113;38.408;-122.974;2022-09-23T16:28:03;22.70;62.20
49373;DHT22;44113;38.408;-122.974;2022-09-23T16:30:32;22.70;62.20
49373;DHT22;44113;38.408;-122.974;2022-09-23T16:33:00;22.70;62.80
49373;DHT22;44113;38.408;-122.974;2022-09-23T16:35:28;22.70;63.40
49373;DHT22;44113;38.408;-122.974;2022-09-23T16:37:58;22.60;64.00
49373;DHT22;44113;38.408;-122.974;2022-09-23T16:40:24;22.60;64.10
49373;DHT22;44113;38.408;-122.974;2022-09-23T16:42:51;22.70;63.80
49373;DHT22;44113;38.408;-122.974;2022-09-23T16:45:20;22.70;64.10
49373;DHT22;44113;38.408;-122.974;2022-09-23T16:47:49;22.70;64.20
49373;DHT22;44113;38.408;-122.974;2022-09-23T16:50:18;22.80;64.60
49373;DHT22;44113;38.408;-122.974;2022-09-23T16:52:45;22.80;64.80
49373;DHT22;44113;38.408;-122.974;2022-09-23T16:55:13;22.80;65.10
49373;DHT22;44113;38.408;-122.974;2022-09-23T16:57:40;22.80;64.80
49373;DHT22;44113;38.408;-122.974;2022-09-23T17:00:11;22.80;64.50
49373;DHT22;44113;38.408;-122.974;2022-09-23T17:02:58;22.80;64.30
49373;DHT22;44113;38.408;-122.974;2022-09-23T17:05:44;22.70;64.10
49373;DHT22;44113;38.408;-122.974;2022-09-23T17:08:11;22.70;64.00
49373;DHT22;44113;38.408;-122.974;2022-09-23T17:10:41;22.70;64.00
49373;DHT22;44113;38.408;-122.974;2022-09-23T17:13:08;22.80;63.90
49373;DHT22;44113;38.408;-122.974;2022-09-23T17:15:39;22.80;63.80
49373;DHT22;44113;38.408;-122.974;2022-09-23T17:18:07;22.80;63.70
49373;DHT22;44113;38.408;-122.974;2022-09-23T17:20:34;22.80;63.60
49373;DHT22;44113;38.408;-122.974;2022-09-23T17:23:04;22.80;63.50
49373;DHT22;44113;38.408;-122.974;2022-09-23T17:25:31;22.80;63.90
49373;DHT22;44113;38.408;-122.974;2022-09-23T17:27:59;22.90;63.80
49373;DHT22;44113;38.408;-122.974;2022-09-23T17:30:27;22.90;63.70
49373;DHT22;44113;38.408;-122.974;2022-09-23T17:32:54;23.00;63.50
49373;DHT22;44113;38.408;-122.974;2022-09-23T17:35:20;23.10;63.20
49373;DHT22;44113;38.408;-122.974;2022-09-23T17:37:47;23.10;62.80
49373;DHT22;44113;38.408;-122.974;2022-09-23T17:40:14;23.20;62.80
49373;DHT22;44113;38.408;-122.974;2022-09-23T17:42:41;23.20;62.60